Pagina principale
METAR-TAF:

METAR-TAF

Aeroporti :

Aeroporto Internazionale di Damasco

Damasco, Siria

latitudine: 33-25N, longitudine: 036-31E, altezza: 608 m

Osservazione

Il bollettino è stato emesso 1 ora e 8 minuti fa, alle 23:00 UTC
Vento 4 kt da nord/nord-est
Temperature 18°C
Umidità 52%
Pressione 1016 hPa
Visibilità 10 km o più
nessuna nube inferiore a 1500 m e nessun cumulonembo

METAR: OSDI 192300Z 02004KT CAVOK 18/08 Q1016

Ora: 03:08 (00:08 UTC)

Previsione

Il bollettino è stato emesso 2 ore e 8 minuti fa, alle 22:00 UTC
Previsione valida dal 20 alle 00 UTC al 21 alle 06 UTC
Vento 3 kt da direzioni variabili
Visibilità: 8000 m
Poco nuvoloso ad un'altezza di 3000 ft
Temporaneamente
dal 20 alle 12 UTC al 20 alle 18 UTC
Vento 10 kt da sud-ovest

TAF: OSDI 192200Z 2000/2106 VRB03KT 8000 FEW030 TEMPO 2012/2018 23010KT

Osservazioni e previsioni meteorologiche di più di 4000 aeroporti (messaggi METAR e TAF).

Le stazioni disponibili sono rappresentate dai dischi gialli e rossi sulla carta.

Puntare il mouse per vedere il nome della stazione.

Clicca sopra per visualizzare le osservazioni e previsioni meteorologiche.

Per cambiare la mappa : fare clic sui pulsanti verdi con una croce nera per ingrandire, il pulsante verde con un trattino per diminuire, o sulla freccia verde per le mappe adiacenti.


METAR-TAF: